createdAt,value
2016-12-14T17:17:45.124Z,1014.07
2016-12-14T17:19:00.030Z,1014.08
2016-12-14T17:20:15.071Z,1014.07
2016-12-14T17:21:29.891Z,1014.08
2016-12-14T17:22:46.101Z,1014.12
2016-12-14T17:24:01.467Z,1014.11
2016-12-14T17:25:16.905Z,1014.06
2016-12-14T17:27:05.912Z,1014.12
2016-12-14T17:28:22.438Z,1014.11
2016-12-14T17:29:41.819Z,1014.16
2016-12-14T17:30:56.567Z,1014.14
2016-12-14T17:32:49.328Z,1014.23
2016-12-14T17:34:04.865Z,1014.25
2016-12-14T17:35:21.714Z,1014.24
2016-12-14T17:36:36.138Z,1014.26
2016-12-14T17:37:50.736Z,1014.28
2016-12-14T17:39:05.452Z,1014.25
2016-12-14T17:40:21.170Z,1014.3
2016-12-14T17:41:36.460Z,1014.31
2016-12-14T17:42:51.072Z,1014.31
2016-12-14T17:44:05.767Z,1014.31
2016-12-14T17:45:20.593Z,1014.33
2016-12-14T17:46:36.219Z,1014.27
2016-12-14T17:47:51.136Z,1014.31
2016-12-14T17:49:06.911Z,1014.32
2016-12-14T17:50:21.943Z,1014.3
2016-12-14T17:51:36.774Z,1014.27
2016-12-14T17:52:52.553Z,1014.32
2016-12-14T17:54:22.065Z,1014.29
2016-12-14T17:55:37.164Z,1014.22
2016-12-14T17:56:53.986Z,1014.25
2016-12-14T17:58:09.144Z,1014.21
2016-12-14T17:59:24.357Z,1014.22
2016-12-14T18:00:38.945Z,1014.22
2016-12-14T18:01:54.358Z,1014.26
2016-12-14T18:03:09.485Z,1014.3
2016-12-14T18:04:24.982Z,1014.27
2016-12-14T18:05:55.931Z,1014.27
2016-12-14T18:07:10.830Z,1014.34
2016-12-14T18:08:26.146Z,1014.35
2016-12-14T18:09:41.546Z,1014.34
2016-12-14T18:10:56.446Z,1014.37
2016-12-14T18:12:11.005Z,1014.34
2016-12-14T18:13:25.565Z,1014.35
2016-12-14T18:14:40.445Z,1014.39
2016-12-14T18:15:54.892Z,1014.35
2016-12-14T18:17:09.866Z,1014.36
2016-12-14T18:18:24.888Z,1014.38
2016-12-14T18:19:39.114Z,1014.35
2016-12-14T18:20:54.132Z,1014.37
2016-12-14T18:22:08.838Z,1014.37
2016-12-14T18:23:23.523Z,1014.4
2016-12-14T18:24:38.579Z,1014.4
2016-12-14T18:25:52.985Z,1014.37
2016-12-14T18:27:08.050Z,1014.32
2016-12-14T18:28:23.043Z,1014.31
2016-12-14T18:29:37.576Z,1014.29
2016-12-14T18:30:52.008Z,1014.28
2016-12-14T18:32:06.728Z,1014.29
2016-12-14T18:33:21.682Z,1014.34
2016-12-14T18:34:36.790Z,1014.3
2016-12-14T18:35:52.782Z,1014.34
2016-12-14T18:37:08.529Z,1014.38
2016-12-14T18:38:23.419Z,1014.34
2016-12-14T18:39:39.180Z,1014.37
2016-12-14T18:40:54.077Z,1014.38
2016-12-14T18:42:09.091Z,1014.43
2016-12-14T18:43:24.077Z,1014.44
2016-12-14T18:44:38.949Z,1014.45
2016-12-14T18:45:54.614Z,1014.49
2016-12-14T18:47:10.372Z,1014.48
2016-12-14T18:48:25.989Z,1014.47
2016-12-14T18:49:41.337Z,1014.47
2016-12-14T18:50:56.069Z,1014.48
2016-12-14T18:52:10.634Z,1014.5
2016-12-14T18:53:28.126Z,1014.5
2016-12-14T18:54:43.121Z,1014.52
2016-12-14T18:55:58.714Z,1014.56
2016-12-14T18:57:13.162Z,1014.59
2016-12-14T18:58:27.617Z,1014.57
2016-12-14T18:59:43.212Z,1014.65
2016-12-14T19:00:58.863Z,1014.61
2016-12-14T19:02:13.715Z,1014.61
2016-12-14T19:03:28.472Z,1014.62
2016-12-14T19:04:43.968Z,1014.58
2016-12-14T19:05:59.734Z,1014.54
2016-12-14T19:07:15.963Z,1014.59
2016-12-14T19:08:30.775Z,1014.56
2016-12-14T19:09:46.023Z,1014.58
2016-12-14T19:11:01.021Z,1014.6
2016-12-14T19:12:16.824Z,1014.67
2016-12-14T19:13:32.343Z,1014.66
2016-12-14T19:14:50.118Z,1014.69
2016-12-14T19:16:06.523Z,1014.67
2016-12-14T19:17:21.035Z,1014.74
2016-12-14T19:18:36.271Z,1014.76
2016-12-14T19:19:51.889Z,1014.74
2016-12-14T19:21:07.015Z,1014.75
2016-12-14T19:22:25.593Z,1014.72
2016-12-14T19:23:43.502Z,1014.74
2016-12-14T19:25:00.448Z,1014.71
2016-12-14T19:26:29.756Z,1014.75
2016-12-14T19:27:44.585Z,1014.78
2016-12-14T19:29:00.286Z,1014.79
2016-12-14T19:30:15.217Z,1014.81
2016-12-14T19:31:31.097Z,1014.78
2016-12-14T19:32:47.545Z,1014.83
2016-12-14T19:34:03.082Z,1014.79
2016-12-14T19:35:19.480Z,1014.83
2016-12-14T19:36:35.232Z,1014.87
2016-12-14T19:37:51.699Z,1014.88
2016-12-14T19:39:07.036Z,1014.88
2016-12-14T19:40:23.227Z,1014.9
2016-12-14T19:41:38.945Z,1014.9
2016-12-14T19:42:54.598Z,1014.92
2016-12-14T19:44:10.242Z,1014.9
2016-12-14T19:45:25.259Z,1014.9
2016-12-14T19:47:06.507Z,1014.92
2016-12-14T19:48:22.558Z,1014.91
2016-12-14T19:49:38.992Z,1014.97
2016-12-14T19:52:29.003Z,1015.01
2016-12-14T19:54:03.615Z,1015.02
2016-12-14T19:55:20.585Z,1015.03
2016-12-14T19:56:36.774Z,1015.06
2016-12-14T19:57:51.995Z,1015.14
2016-12-14T19:59:07.782Z,1015.13
2016-12-14T20:00:24.099Z,1015.1
2016-12-14T20:01:41.861Z,1015.1
2016-12-14T20:04:59.331Z,1015.11
2016-12-14T20:06:16.125Z,1015.14
2016-12-14T20:07:32.055Z,1015.15
2016-12-14T20:08:47.851Z,1015.22
2016-12-14T20:10:04.954Z,1015.2
2016-12-14T20:11:20.419Z,1015.21
2016-12-14T20:12:35.916Z,1015.21
2016-12-14T20:13:54.441Z,1015.18
2016-12-14T20:15:25.031Z,1015.16
2016-12-14T20:16:41.160Z,1015.13
2016-12-14T20:17:57.269Z,1015.11
2016-12-14T20:19:12.284Z,1015.08
2016-12-14T20:20:27.206Z,1015.09
2016-12-14T20:24:13.317Z,1015.1
2016-12-14T20:26:07.748Z,1015.19
2016-12-14T20:27:41.312Z,1015.19
2016-12-14T20:29:15.697Z,1015.18
2016-12-14T20:30:51.035Z,1015.21
2016-12-14T20:32:24.932Z,1015.2
2016-12-14T20:33:58.458Z,1015.19
2016-12-14T20:35:32.203Z,1015.15
2016-12-14T20:37:07.210Z,1015.18
2016-12-14T20:39:00.522Z,1015.18
2016-12-14T20:40:37.368Z,1015.14
2016-12-14T20:42:12.259Z,1015.17
2016-12-14T20:43:46.964Z,1015.12
2016-12-14T20:45:22.372Z,1015.09
2016-12-14T20:47:17.773Z,1015.13
2016-12-14T20:48:52.596Z,1015.09
2016-12-14T20:50:26.942Z,1015.1
2016-12-14T20:52:02.392Z,1015.13
2016-12-14T20:54:00.745Z,1015.16
2016-12-14T20:55:32.138Z,1015.17
2016-12-14T20:57:06.788Z,1015.13
2016-12-14T20:58:41.679Z,1015.15
2016-12-14T21:00:15.676Z,1015.2
2016-12-14T21:01:49.953Z,1015.15
2016-12-14T21:03:23.981Z,1015.17
2016-12-14T21:04:57.479Z,1015.15
2016-12-14T21:06:31.729Z,1015.12
2016-12-14T21:08:06.294Z,1015.12
2016-12-14T21:09:59.851Z,1015.2
2016-12-14T21:11:33.670Z,1015.18
2016-12-14T21:13:08.789Z,1015.26
2016-12-14T21:14:45.870Z,1015.2
2016-12-14T21:16:19.673Z,1015.19
2016-12-14T21:17:54.273Z,1015.14
2016-12-14T21:19:28.485Z,1015.14
2016-12-14T21:21:22.708Z,1015.16
2016-12-14T21:22:56.729Z,1015.21
2016-12-14T21:24:31.284Z,1015.13
2016-12-14T21:26:06.053Z,1015.11
2016-12-14T21:27:40.067Z,1015.13
2016-12-14T21:29:14.914Z,1015.15
2016-12-14T21:30:49.066Z,1015.13
2016-12-14T21:32:23.273Z,1015.15
2016-12-14T21:34:17.954Z,1015.17
2016-12-14T21:35:52.172Z,1015.22
2016-12-14T21:37:26.245Z,1015.19
2016-12-14T21:39:00.356Z,1015.2
2016-12-14T21:40:29.569Z,1015.19
2016-12-14T21:42:03.726Z,1015.24
2016-12-14T21:43:37.656Z,1015.23
2016-12-14T21:45:12.154Z,1015.23
2016-12-14T21:46:45.823Z,1015.25
2016-12-14T21:48:20.265Z,1015.22
2016-12-14T21:49:49.255Z,1015.21
2016-12-14T21:51:23.092Z,1015.19
2016-12-14T21:52:56.744Z,1015.19
2016-12-14T21:54:28.738Z,1015.24
2016-12-14T21:56:03.019Z,1015.22
2016-12-14T21:57:37.073Z,1015.23
2016-12-14T21:59:10.681Z,1015.18
2016-12-14T22:00:44.610Z,1015.24
2016-12-14T22:02:19.114Z,1015.21
2016-12-14T22:04:13.019Z,1015.25
2016-12-14T22:05:47.143Z,1015.22
2016-12-14T22:07:16.980Z,1015.17
2016-12-14T22:08:31.528Z,1015.16
2016-12-14T22:10:24.999Z,1015.17
2016-12-14T22:11:58.838Z,1015.14
2016-12-14T22:13:32.264Z,1015.1
2016-12-14T22:15:05.669Z,1015.13
2016-12-14T22:16:35.070Z,1015.13
2016-12-14T22:17:49.579Z,1015.12
2016-12-14T22:19:22.904Z,1015.15
2016-12-14T22:21:15.605Z,1015.06
2016-12-14T22:22:49.836Z,1015.13
2016-12-14T22:24:23.689Z,1015.14
2016-12-14T22:25:57.121Z,1015.12
2016-12-14T22:27:30.906Z,1015.11
2016-12-14T22:29:05.073Z,1015.14
2016-12-14T22:30:38.881Z,1015.14
2016-12-14T22:32:12.478Z,1015.09
2016-12-14T22:33:46.352Z,1015.08
2016-12-14T22:35:20.326Z,1015.13
2016-12-14T22:36:53.783Z,1015.1
2016-12-14T22:38:27.469Z,1015.07
2016-12-14T22:40:01.186Z,1015.08
2016-12-14T22:41:35.277Z,1015.06
2016-12-14T22:43:27.953Z,1015.04
2016-12-14T22:45:01.602Z,1015.1
2016-12-14T22:46:35.964Z,1015.08
2016-12-14T22:48:09.753Z,1015.06
2016-12-14T22:49:43.654Z,1015.05
2016-12-14T22:51:17.951Z,1015
2016-12-14T22:52:52.078Z,1014.96
2016-12-14T22:54:26.056Z,1014.93
2016-12-14T22:56:21.304Z,1015.01
2016-12-14T22:57:35.921Z,1014.97
2016-12-14T22:59:28.846Z,1014.91
2016-12-14T23:01:02.830Z,1014.91
2016-12-14T23:02:36.395Z,1014.88
2016-12-14T23:04:09.826Z,1014.87
2016-12-14T23:05:43.182Z,1014.88
2016-12-14T23:07:16.850Z,1014.84
2016-12-14T23:08:51.238Z,1014.87
2016-12-14T23:10:24.769Z,1014.86
2016-12-14T23:11:58.232Z,1014.91
2016-12-14T23:13:33.076Z,1014.92
2016-12-14T23:15:06.851Z,1014.88
2016-12-14T23:16:40.465Z,1014.91
2016-12-14T23:18:36.596Z,1014.89
2016-12-14T23:20:10.562Z,1014.91
2016-12-14T23:21:44.546Z,1014.88
2016-12-14T23:23:18.587Z,1014.9
2016-12-14T23:24:52.616Z,1014.93
2016-12-14T23:26:28.433Z,1014.9
2016-12-14T23:28:02.869Z,1014.95
2016-12-14T23:29:36.948Z,1014.96
2016-12-14T23:31:10.872Z,1014.98
2016-12-14T23:33:07.861Z,1015.01
2016-12-14T23:34:41.743Z,1015.03
2016-12-14T23:36:15.781Z,1015.1
2016-12-14T23:37:49.746Z,1015.1
2016-12-14T23:39:23.973Z,1015.13
2016-12-14T23:40:57.851Z,1015.09
2016-12-14T23:42:27.340Z,1015.13
2016-12-14T23:44:01.837Z,1015.18
2016-12-14T23:45:36.139Z,1015.2
2016-12-14T23:47:09.945Z,1015.19
2016-12-14T23:48:44.364Z,1015.21
2016-12-14T23:50:39.948Z,1015.27
2016-12-14T23:52:13.778Z,1015.26
2016-12-14T23:53:47.361Z,1015.25
2016-12-14T23:55:21.645Z,1015.33
2016-12-14T23:56:55.808Z,1015.35
2016-12-14T23:58:29.355Z,1015.34
